createdAt,value
2023-02-08T00:01:05.535Z,0
2023-02-08T00:03:07.258Z,0
2023-02-08T00:05:09.332Z,0
2023-02-08T00:07:11.037Z,0
2023-02-08T00:09:12.498Z,0
2023-02-08T00:11:13.924Z,0
2023-02-08T00:13:15.969Z,0
2023-02-08T00:15:17.762Z,0
2023-02-08T00:17:19.540Z,0
2023-02-08T00:19:21.304Z,0
2023-02-08T00:21:22.855Z,0
2023-02-08T00:23:24.096Z,0
2023-02-08T00:25:25.471Z,0
2023-02-08T00:27:26.678Z,0
2023-02-08T00:29:28.128Z,0
2023-02-08T00:31:29.970Z,0
2023-02-08T00:33:31.599Z,0
2023-02-08T00:35:32.823Z,0
2023-02-08T00:37:34.597Z,0
2023-02-08T00:39:36.076Z,0
2023-02-08T00:41:37.882Z,0
2023-02-08T00:43:39.786Z,0
2023-02-08T00:45:41.682Z,0
2023-02-08T00:47:43.629Z,0
2023-02-08T00:51:47.140Z,0
2023-02-08T00:53:49.237Z,0
2023-02-08T00:55:50.685Z,0
2023-02-08T00:57:52.458Z,0
2023-02-08T01:01:56.562Z,0
2023-02-08T01:03:58.215Z,0
2023-02-08T01:06:00.094Z,0
2023-02-08T01:08:01.639Z,0
2023-02-08T01:12:04.611Z,0
2023-02-08T01:14:06.660Z,0
2023-02-08T01:16:08.007Z,0
2023-02-08T01:18:09.567Z,0
2023-02-08T01:20:10.943Z,0
2023-02-08T01:24:14.243Z,0
2023-02-08T01:26:16.223Z,0
2023-02-08T01:28:17.427Z,0
2023-02-08T01:30:19.401Z,0
2023-02-08T01:32:21.418Z,0
2023-02-08T01:34:23.472Z,0
2023-02-08T01:36:25.652Z,0
2023-02-08T01:38:26.776Z,0
2023-02-08T01:40:28.214Z,0
2023-02-08T01:44:31.223Z,0
2023-02-08T01:46:32.570Z,0
2023-02-08T01:48:33.784Z,0
2023-02-08T01:50:35.628Z,0
2023-02-08T01:54:39.033Z,0
2023-02-08T01:56:40.714Z,0
2023-02-08T01:58:42.090Z,0
2023-02-08T02:00:43.975Z,0
2023-02-08T02:02:45.096Z,0
2023-02-08T02:06:49.150Z,0
2023-02-08T02:08:50.940Z,0
2023-02-08T02:10:52.884Z,0
2023-02-08T02:12:54.357Z,0
2023-02-08T02:14:56.029Z,0
2023-02-08T02:16:57.820Z,0
2023-02-08T02:18:59.951Z,0
2023-02-08T02:21:01.389Z,0
2023-02-08T02:23:02.757Z,0
2023-02-08T02:27:05.924Z,0
2023-02-08T02:29:07.780Z,0
2023-02-08T02:31:09.375Z,0
2023-02-08T02:33:10.603Z,0
2023-02-08T02:37:14.586Z,0
2023-02-08T02:39:16.466Z,0
2023-02-08T02:41:18.526Z,0
2023-02-08T02:43:20.006Z,0
2023-02-08T02:45:21.781Z,0
2023-02-08T02:49:25.618Z,0
2023-02-08T02:51:27.467Z,0
2023-02-08T02:53:28.669Z,0
2023-02-08T02:55:29.837Z,0
2023-02-08T02:57:31.598Z,0
2023-02-08T02:59:33.625Z,0
2023-02-08T03:01:35.465Z,0
2023-02-08T03:03:36.947Z,0
2023-02-08T03:05:38.827Z,0
2023-02-08T03:09:42.565Z,0
2023-02-08T03:11:44.659Z,0
2023-02-08T03:13:46.241Z,0
2023-02-08T03:15:48.261Z,0
2023-02-08T03:19:51.739Z,0
2023-02-08T03:21:52.940Z,0
2023-02-08T03:23:54.920Z,0
2023-02-08T03:25:56.041Z,0
2023-02-08T03:27:57.337Z,0
2023-02-08T03:32:00.833Z,0
2023-02-08T03:34:02.033Z,0
2023-02-08T03:36:03.766Z,0
2023-02-08T03:38:05.025Z,0
2023-02-08T03:40:06.535Z,0
2023-02-08T03:40:50.575Z,0
2023-02-08T03:42:52.660Z,0
2023-02-08T03:46:55.546Z,0
2023-02-08T03:48:57.596Z,0
2023-02-08T03:50:59.296Z,0
2023-02-08T03:53:01.249Z,0
2023-02-08T03:57:04.732Z,0
2023-02-08T03:59:06.127Z,0
2023-02-08T04:01:08.057Z,0
2023-02-08T04:03:09.856Z,0
2023-02-08T04:05:11.628Z,0
2023-02-08T04:07:12.838Z,0
2023-02-08T04:09:14.287Z,0
2023-02-08T04:11:16.387Z,0
2023-02-08T04:13:18.054Z,0
2023-02-08T04:15:19.570Z,0
2023-02-08T04:19:22.726Z,0
2023-02-08T04:21:24.235Z,0
2023-02-08T04:23:26.369Z,0
2023-02-08T04:25:28.082Z,0
2023-02-08T04:29:31.864Z,0
2023-02-08T04:31:33.960Z,0
2023-02-08T04:33:35.913Z,0
2023-02-08T04:35:37.867Z,0
2023-02-08T04:37:49.129Z,0
2023-02-08T04:39:40.332Z,0
2023-02-08T04:41:42.032Z,0
2023-02-08T04:43:43.547Z,0
2023-02-08T04:45:45.571Z,0
2023-02-08T04:47:46.996Z,0
2023-02-08T04:49:49.142Z,0
2023-02-08T04:51:50.674Z,0
2023-02-08T04:53:52.621Z,0
2023-02-08T04:55:54.603Z,0
2023-02-08T04:57:56.447Z,0
2023-02-08T05:00:00.027Z,0
2023-02-08T05:01:59.349Z,0
2023-02-08T05:04:00.612Z,0
2023-02-08T05:06:02.302Z,0
2023-02-08T05:08:03.646Z,0
2023-02-08T05:12:07.560Z,0
2023-02-08T05:14:09.236Z,0
2023-02-08T05:16:10.677Z,0
2023-02-08T05:18:12.223Z,0
2023-02-08T05:22:15.662Z,0
2023-02-08T05:24:17.489Z,0
2023-02-08T05:26:19.158Z,0
2023-02-08T05:28:20.784Z,0
2023-02-08T05:30:22.118Z,0
2023-02-08T05:32:23.987Z,0
2023-02-08T05:34:25.566Z,0
2023-02-08T05:36:26.994Z,0
2023-02-08T05:38:28.760Z,0
2023-02-08T05:40:30.774Z,0
2023-02-08T05:42:32.410Z,0
2023-02-08T05:44:33.988Z,0
2023-02-08T05:46:37.836Z,0
2023-02-08T05:48:36.725Z,0
2023-02-08T05:50:38.517Z,0
2023-02-08T05:52:39.659Z,0
2023-02-08T05:54:41.859Z,0
2023-02-08T05:56:43.248Z,0
2023-02-08T05:58:44.598Z,0
2023-02-08T06:00:46.362Z,0
2023-02-08T06:04:49.607Z,0
2023-02-08T06:06:51.604Z,0
2023-02-08T06:08:53.365Z,0
2023-02-08T06:10:55.398Z,0
2023-02-08T06:12:57.329Z,0
2023-02-08T06:14:59.310Z,0
2023-02-08T06:17:00.892Z,0
2023-02-08T06:19:02.107Z,0
2023-02-08T06:21:03.494Z,0
2023-02-08T06:23:05.649Z,0
2023-02-08T06:27:08.933Z,0
2023-02-08T06:29:11.020Z,0
2023-02-08T06:31:13.208Z,0
2023-02-08T06:33:15.794Z,0
2023-02-08T06:37:18.742Z,0
2023-02-08T06:39:20.288Z,0
2023-02-08T06:41:21.772Z,0
2023-02-08T06:43:23.150Z,0
2023-02-08T06:47:26.679Z,0
2023-02-08T06:49:27.936Z,0
2023-02-08T06:51:29.287Z,0
2023-02-08T06:53:30.588Z,0
2023-02-08T06:55:32.615Z,0
2023-02-08T06:59:36.363Z,0
2023-02-08T07:01:38.501Z,0
2023-02-08T07:03:39.780Z,0
2023-02-08T07:05:42.585Z,0
2023-02-08T07:07:43.133Z,0
2023-02-08T07:09:44.603Z,0
2023-02-08T07:11:45.931Z,0
2023-02-08T07:13:47.954Z,0
2023-02-08T07:15:49.770Z,0
2023-02-08T07:19:53.320Z,0
2023-02-08T07:21:55.234Z,0
2023-02-08T07:23:56.804Z,0
2023-02-08T07:25:58.901Z,0
2023-02-08T07:30:01.544Z,0
2023-02-08T07:32:02.814Z,0
2023-02-08T07:34:04.730Z,0
2023-02-08T07:36:06.577Z,0
2023-02-08T07:38:08.467Z,0
2023-02-08T07:42:12.312Z,0
2023-02-08T07:44:13.537Z,0
2023-02-08T07:46:15.305Z,0
2023-02-08T07:48:16.491Z,0
2023-02-08T07:50:17.748Z,0
2023-02-08T07:52:19.346Z,0
2023-02-08T07:54:20.750Z,0
2023-02-08T07:56:22.635Z,0
2023-02-08T07:58:24.559Z,0
2023-02-08T08:02:26.992Z,0
2023-02-08T08:04:28.590Z,0
2023-02-08T08:06:29.798Z,0
2023-02-08T08:08:31.347Z,0
2023-02-08T08:12:33.968Z,0
2023-02-08T08:14:36.004Z,0
2023-02-08T08:16:37.032Z,0
2023-02-08T08:18:38.292Z,0
2023-02-08T08:20:39.758Z,0
2023-02-08T08:22:40.623Z,0.14
2023-02-08T08:24:42.333Z,0.14
2023-02-08T08:26:43.404Z,0.561
2023-02-08T08:28:44.949Z,0.561
2023-02-08T08:30:46.288Z,0.14
2023-02-08T08:32:47.902Z,0.702
2023-02-08T08:34:49.581Z,0.28
2023-02-08T08:36:50.705Z,2.246
2023-02-08T08:38:51.697Z,1.544
2023-02-08T08:40:52.964Z,2.246
2023-02-08T08:42:54.432Z,0.982
2023-02-08T08:44:55.599Z,1.544
2023-02-08T08:46:56.693Z,1.825
2023-02-08T08:48:58.414Z,0.982
2023-02-08T08:51:00.155Z,0.28
2023-02-08T08:53:01.707Z,1.263
2023-02-08T08:55:03.656Z,1.123
2023-02-08T08:57:04.757Z,2.667
2023-02-08T08:59:06.590Z,3.229
2023-02-08T09:01:08.159Z,0.28
2023-02-08T09:03:09.156Z,1.825
2023-02-08T09:05:10.452Z,2.386
2023-02-08T09:07:11.546Z,1.544
2023-02-08T09:09:13.466Z,0
2023-02-08T09:11:15.390Z,0
2023-02-08T09:13:17.318Z,2.527
2023-02-08T09:15:18.921Z,1.404
2023-02-08T09:17:20.240Z,0.421
2023-02-08T09:19:21.404Z,0.702
2023-02-08T09:21:23.091Z,1.544
2023-02-08T09:23:24.276Z,0.561
2023-02-08T09:25:25.697Z,3.369
2023-02-08T09:27:27.289Z,1.965
2023-02-08T09:29:29.243Z,1.123
2023-02-08T09:31:31.144Z,3.51
2023-02-08T09:33:32.867Z,0
2023-02-08T09:35:33.940Z,1.123
2023-02-08T09:37:34.995Z,2.527
2023-02-08T09:39:36.218Z,0.842
2023-02-08T09:41:37.468Z,1.965
2023-02-08T09:43:38.771Z,2.667
2023-02-08T09:45:51.033Z,2.246
2023-02-08T09:47:41.651Z,4.492
2023-02-08T09:49:42.678Z,4.212
2023-02-08T09:53:45.717Z,9.828
2023-02-08T09:55:47.549Z,8.424
2023-02-08T09:57:48.745Z,8.845
2023-02-08T09:59:50.609Z,6.318
2023-02-08T10:01:52.545Z,7.581
2023-02-08T10:03:54.143Z,5.194
2023-02-08T10:05:55.150Z,10.108
2023-02-08T10:07:56.607Z,7.02
2023-02-08T10:09:58.397Z,7.16
2023-02-08T10:11:59.931Z,7.441
2023-02-08T10:14:01.536Z,6.739
2023-02-08T10:16:03.442Z,7.862
2023-02-08T10:18:04.959Z,4.773
2023-02-08T10:20:06.134Z,6.598
2023-02-08T10:22:07.642Z,4.773
2023-02-08T10:26:10.997Z,8.424
2023-02-08T10:26:54.863Z,4.352
2023-02-08T10:30:57.609Z,8.002
2023-02-08T10:32:58.927Z,8.845
2023-02-08T10:34:59.907Z,8.283
2023-02-08T10:37:01.709Z,6.458
2023-02-08T10:39:02.964Z,8.845
2023-02-08T10:43:06.419Z,11.091
2023-02-08T10:45:19.005Z,6.879
2023-02-08T10:47:08.722Z,6.739
2023-02-08T10:49:10.388Z,9.687
2023-02-08T10:51:11.943Z,7.02
2023-02-08T10:53:13.090Z,5.616
2023-02-08T10:55:14.438Z,6.318
2023-02-08T10:57:16.610Z,7.862
2023-02-08T10:59:18.305Z,5.756
2023-02-08T11:03:21.235Z,8.283
2023-02-08T11:05:22.544Z,8.845
2023-02-08T11:07:24.037Z,7.02
2023-02-08T11:09:25.852Z,8.985
2023-02-08T11:13:29.012Z,10.81
2023-02-08T11:15:38.299Z,7.862
2023-02-08T11:17:32.193Z,10.389
2023-02-08T11:19:35.216Z,4.352
2023-02-08T11:21:34.439Z,3.931
2023-02-08T11:23:36.409Z,7.722
2023-02-08T11:25:37.352Z,2.106
2023-02-08T11:27:38.518Z,5.896
2023-02-08T11:29:39.609Z,5.194
2023-02-08T11:31:40.788Z,9.968
2023-02-08T11:33:42.224Z,8.002
2023-02-08T11:35:43.571Z,6.318
2023-02-08T11:37:45.242Z,8.002
2023-02-08T11:39:46.923Z,5.335
2023-02-08T11:41:48.275Z,2.246
2023-02-08T11:45:51.146Z,6.879
2023-02-08T11:47:52.866Z,7.16
2023-02-08T11:49:54.723Z,12.355
2023-02-08T11:51:56.049Z,4.773
2023-02-08T11:55:58.982Z,6.739
2023-02-08T11:58:00.935Z,10.81
2023-02-08T12:00:02.839Z,6.318
2023-02-08T12:02:04.722Z,4.352
2023-02-08T12:04:06.158Z,7.441
2023-02-08T12:06:07.734Z,6.037
2023-02-08T12:08:09.256Z,8.143
2023-02-08T12:10:10.354Z,9.968
2023-02-08T12:12:11.840Z,10.67
2023-02-08T12:14:13.720Z,5.616
2023-02-08T12:16:15.580Z,5.054
2023-02-08T12:18:16.673Z,9.266
2023-02-08T12:20:18.505Z,8.424
2023-02-08T12:22:19.483Z,9.406
2023-02-08T12:24:21.029Z,5.335
2023-02-08T12:26:22.292Z,8.985
2023-02-08T12:28:23.529Z,5.475
2023-02-08T12:30:24.593Z,5.054
2023-02-08T12:32:26.146Z,8.564
2023-02-08T12:34:27.518Z,5.616
2023-02-08T12:36:29.409Z,3.088
2023-02-08T12:38:31.379Z,8.143
2023-02-08T12:40:32.904Z,9.266
2023-02-08T12:42:33.883Z,3.088
2023-02-08T12:44:35.664Z,7.02
2023-02-08T12:46:37.111Z,9.687
2023-02-08T12:48:38.508Z,8.283
2023-02-08T12:50:40.140Z,7.3
2023-02-08T12:52:41.969Z,11.372
2023-02-08T12:54:43.399Z,6.318
2023-02-08T12:56:50.903Z,6.739
2023-02-08T12:58:47.017Z,6.879
2023-02-08T13:00:48.855Z,9.406
2023-02-08T13:02:50.377Z,8.002
2023-02-08T13:04:51.538Z,9.126
2023-02-08T13:06:53.000Z,9.126
2023-02-08T13:08:54.359Z,6.598
2023-02-08T13:10:55.657Z,10.108
2023-02-08T13:12:57.557Z,3.931
2023-02-08T13:14:59.432Z,8.985
2023-02-08T13:16:59.980Z,7.862
2023-02-08T13:19:01.001Z,4.633
2023-02-08T13:21:02.009Z,9.126
2023-02-08T13:23:03.841Z,5.194
2023-02-08T13:25:07.752Z,8.283
2023-02-08T13:27:07.218Z,9.687
2023-02-08T13:29:08.746Z,7.02
2023-02-08T13:31:10.339Z,10.67
2023-02-08T13:33:11.689Z,10.53
2023-02-08T13:35:13.105Z,8.564
2023-02-08T13:37:24.554Z,8.985
2023-02-08T13:39:16.281Z,4.492
2023-02-08T13:41:17.586Z,10.67
2023-02-08T13:43:33.062Z,6.037
2023-02-08T13:45:20.997Z,8.845
2023-02-08T13:47:22.102Z,8.424
2023-02-08T13:49:23.149Z,6.318
2023-02-08T13:51:24.980Z,11.091
2023-02-08T13:53:26.194Z,8.143
2023-02-08T13:55:27.375Z,9.406
2023-02-08T13:57:28.557Z,6.739
2023-02-08T13:59:29.848Z,5.896
2023-02-08T14:01:31.519Z,5.475
2023-02-08T14:03:33.267Z,8.985
2023-02-08T14:05:34.446Z,8.424
2023-02-08T14:09:38.280Z,2.246
2023-02-08T14:11:39.322Z,5.896
2023-02-08T14:13:40.270Z,8.143
2023-02-08T14:15:42.249Z,7.3
2023-02-08T14:19:44.746Z,8.845
2023-02-08T14:21:46.569Z,4.492
2023-02-08T14:23:48.440Z,6.458
2023-02-08T14:25:50.053Z,9.406
2023-02-08T14:27:52.030Z,5.756
2023-02-08T14:29:53.862Z,5.194
2023-02-08T14:31:54.960Z,5.194
2023-02-08T14:33:56.090Z,7.02
2023-02-08T14:35:57.081Z,10.108
2023-02-08T14:38:03.446Z,5.756
2023-02-08T14:40:00.465Z,8.424
2023-02-08T14:42:01.764Z,8.985
2023-02-08T14:44:03.058Z,7.862
2023-02-08T14:46:04.731Z,5.335
2023-02-08T14:48:06.682Z,6.879
2023-02-08T14:52:09.480Z,5.335
2023-02-08T14:54:11.256Z,9.266
2023-02-08T14:56:12.310Z,5.475
2023-02-08T14:58:13.792Z,7.722
2023-02-08T15:02:16.755Z,10.249
2023-02-08T15:04:18.128Z,7.3
2023-02-08T15:06:19.627Z,8.424
2023-02-08T15:08:21.497Z,6.458
2023-02-08T15:10:22.913Z,7.441
2023-02-08T15:12:23.923Z,7.02
2023-02-08T15:14:25.163Z,4.633
2023-02-08T15:16:26.764Z,6.598
2023-02-08T15:18:27.860Z,8.283
2023-02-08T15:20:29.411Z,9.126
2023-02-08T15:22:30.609Z,3.931
2023-02-08T15:24:32.518Z,2.808
2023-02-08T15:26:33.859Z,2.808
2023-02-08T15:28:35.776Z,4.773
2023-02-08T15:30:36.821Z,5.475
2023-02-08T15:34:40.643Z,2.527
2023-02-08T15:36:42.526Z,4.492
2023-02-08T15:38:44.005Z,2.106
2023-02-08T15:40:45.662Z,0.561
2023-02-08T15:44:47.927Z,1.825
2023-02-08T15:46:49.093Z,0.842
2023-02-08T15:50:51.605Z,3.51
2023-02-08T15:52:52.848Z,2.667
2023-02-08T15:54:54.690Z,5.616
2023-02-08T15:56:55.974Z,3.369
2023-02-08T15:58:57.630Z,2.808
2023-02-08T16:00:58.819Z,2.667
2023-02-08T16:03:00.357Z,4.212
2023-02-08T16:05:02.100Z,1.263
2023-02-08T16:07:03.430Z,4.492
2023-02-08T16:09:04.421Z,1.263
2023-02-08T16:11:06.245Z,1.123
2023-02-08T16:13:07.771Z,4.633
2023-02-08T16:15:09.786Z,4.352
2023-02-08T16:17:11.677Z,2.808
2023-02-08T16:19:13.143Z,1.825
2023-02-08T16:21:14.589Z,2.948
2023-02-08T16:23:15.817Z,4.071
2023-02-08T16:25:17.104Z,2.386
2023-02-08T16:27:18.314Z,1.825
2023-02-08T16:29:19.753Z,0.28
2023-02-08T16:31:20.827Z,2.106
2023-02-08T16:33:22.682Z,0.14
2023-02-08T16:35:24.020Z,0.14
2023-02-08T16:37:25.421Z,0.421
2023-02-08T16:39:27.294Z,0
2023-02-08T16:41:28.481Z,0
2023-02-08T16:43:30.336Z,0
2023-02-08T16:45:31.613Z,0
2023-02-08T16:47:33.291Z,0
2023-02-08T16:49:34.361Z,0
2023-02-08T16:51:36.369Z,0
2023-02-08T16:53:42.190Z,1.965
2023-02-08T16:55:39.486Z,2.386
2023-02-08T16:57:40.629Z,1.965
2023-02-08T16:59:42.236Z,1.263
2023-02-08T17:01:43.465Z,2.106
2023-02-08T17:03:45.226Z,1.684
2023-02-08T17:05:46.957Z,0.982
2023-02-08T17:07:48.668Z,0.561
2023-02-08T17:09:49.941Z,1.123
2023-02-08T17:11:51.320Z,1.544
2023-02-08T17:12:35.280Z,1.965
2023-02-08T17:14:36.821Z,2.808
2023-02-08T17:16:38.339Z,0.842
2023-02-08T17:20:41.624Z,1.404
2023-02-08T17:22:43.030Z,2.808
2023-02-08T17:24:44.715Z,4.914
2023-02-08T17:26:46.457Z,4.914
2023-02-08T17:28:47.618Z,5.194
2023-02-08T17:30:48.893Z,5.054
2023-02-08T17:32:50.479Z,3.931
2023-02-08T17:34:52.035Z,2.246
2023-02-08T17:36:53.631Z,2.808
2023-02-08T17:38:54.807Z,2.948
2023-02-08T17:40:55.955Z,4.633
2023-02-08T17:42:57.771Z,2.808
2023-02-08T17:44:59.174Z,1.825
2023-02-08T17:47:00.819Z,1.404
2023-02-08T17:49:02.722Z,0.842
2023-02-08T17:53:06.266Z,0.842
2023-02-08T17:55:07.528Z,0
2023-02-08T17:57:09.400Z,0
2023-02-08T17:59:10.985Z,0
2023-02-08T18:03:14.318Z,2.106
2023-02-08T18:05:16.050Z,1.684
2023-02-08T18:07:17.907Z,1.404
2023-02-08T18:09:19.676Z,0
2023-02-08T18:11:21.122Z,0
2023-02-08T18:13:22.851Z,0
2023-02-08T18:15:24.014Z,0
2023-02-08T18:17:25.172Z,0
2023-02-08T18:19:27.099Z,2.106
2023-02-08T18:21:28.912Z,0.982
2023-02-08T18:23:30.411Z,1.544
2023-02-08T18:25:31.871Z,1.544
2023-02-08T18:27:33.572Z,0
2023-02-08T18:29:34.939Z,0
2023-02-08T18:31:36.663Z,0
2023-02-08T18:33:37.932Z,0.14
2023-02-08T18:35:39.771Z,0
2023-02-08T18:37:41.017Z,0
2023-02-08T18:39:42.306Z,0
2023-02-08T18:41:43.560Z,0
2023-02-08T18:43:45.181Z,0
2023-02-08T18:45:46.869Z,0
2023-02-08T18:47:48.903Z,0.702
2023-02-08T18:49:49.995Z,0.14
2023-02-08T18:51:51.786Z,0
2023-02-08T18:53:53.257Z,2.386
2023-02-08T18:57:55.904Z,3.088
2023-02-08T18:59:57.628Z,3.79
2023-02-08T19:01:59.595Z,4.352
2023-02-08T19:04:01.140Z,3.79
2023-02-08T19:06:02.827Z,2.246
2023-02-08T19:08:04.911Z,3.369
2023-02-08T19:10:06.054Z,2.106
2023-02-08T19:12:08.129Z,1.404
2023-02-08T19:14:09.528Z,1.123
2023-02-08T19:16:10.682Z,1.404
2023-02-08T19:18:11.869Z,2.386
2023-02-08T19:20:13.654Z,4.352
2023-02-08T19:22:14.719Z,4.071
2023-02-08T19:24:16.820Z,4.914
2023-02-08T19:26:18.356Z,4.773
2023-02-08T19:28:20.434Z,3.088
2023-02-08T19:30:22.529Z,4.492
2023-02-08T19:32:24.343Z,4.352
2023-02-08T19:34:26.406Z,2.808
2023-02-08T19:36:27.979Z,3.65
2023-02-08T19:38:30.014Z,4.352
2023-02-08T19:40:31.405Z,4.212
2023-02-08T19:42:32.583Z,5.054
2023-02-08T19:44:33.799Z,3.931
2023-02-08T19:46:35.315Z,3.088
2023-02-08T19:48:36.727Z,5.335
2023-02-08T19:50:37.884Z,0
2023-02-08T19:52:39.505Z,0.14
2023-02-08T19:54:41.195Z,0
2023-02-08T19:56:42.424Z,0
2023-02-08T19:58:44.295Z,1.123
2023-02-08T20:00:45.769Z,2.246
2023-02-08T20:02:47.202Z,3.51
2023-02-08T20:04:48.941Z,1.825
2023-02-08T20:06:50.296Z,1.544
2023-02-08T20:08:52.142Z,2.106
2023-02-08T20:10:54.251Z,0
2023-02-08T20:12:56.293Z,1.263
2023-02-08T20:14:58.076Z,0.842
2023-02-08T20:16:59.977Z,0.842
2023-02-08T20:19:01.285Z,0.982
2023-02-08T20:21:02.441Z,0.842
2023-02-08T20:23:09.002Z,0
2023-02-08T20:25:05.096Z,0
2023-02-08T20:27:07.063Z,2.527
2023-02-08T20:29:08.531Z,1.544
2023-02-08T20:31:10.266Z,1.684
2023-02-08T20:33:11.509Z,1.544
2023-02-08T20:35:13.332Z,0.702
2023-02-08T20:37:14.829Z,0.14
2023-02-08T20:39:16.164Z,0.702
2023-02-08T20:41:17.336Z,0.561
2023-02-08T20:43:19.307Z,1.404
2023-02-08T20:45:20.857Z,0.14
2023-02-08T20:47:22.247Z,0
2023-02-08T20:49:23.299Z,0
2023-02-08T20:51:24.843Z,0
2023-02-08T20:53:26.828Z,0
2023-02-08T20:55:28.944Z,0
2023-02-08T20:57:30.105Z,0
2023-02-08T20:59:31.932Z,0
2023-02-08T21:01:33.858Z,0
2023-02-08T21:03:35.812Z,0
2023-02-08T21:05:37.365Z,0
2023-02-08T21:07:38.699Z,0
2023-02-08T21:09:40.714Z,1.404
2023-02-08T21:11:42.470Z,0
2023-02-08T21:13:44.462Z,1.404
2023-02-08T21:15:46.605Z,0
2023-02-08T21:17:48.159Z,0
2023-02-08T21:19:49.708Z,0
2023-02-08T21:21:51.070Z,0
2023-02-08T21:23:52.770Z,1.544
2023-02-08T21:25:54.524Z,2.667
2023-02-08T21:27:56.195Z,1.544
2023-02-08T21:29:57.431Z,1.684
2023-02-08T21:31:59.637Z,0.842
2023-02-08T21:34:00.867Z,0
2023-02-08T21:36:02.193Z,0
2023-02-08T21:38:04.189Z,1.263
2023-02-08T21:40:05.851Z,0
2023-02-08T21:42:06.991Z,0.14
2023-02-08T21:44:08.636Z,0
2023-02-08T21:46:09.847Z,0
2023-02-08T21:48:10.950Z,0
2023-02-08T21:50:12.401Z,0
2023-02-08T21:52:14.255Z,0
2023-02-08T21:54:16.062Z,0
2023-02-08T21:56:17.741Z,0
2023-02-08T21:58:19.716Z,0
2023-02-08T22:00:20.857Z,0
2023-02-08T22:02:22.824Z,0
2023-02-08T22:04:24.844Z,0
2023-02-08T22:06:26.688Z,0
2023-02-08T22:08:28.678Z,0
2023-02-08T22:10:30.208Z,0
2023-02-08T22:12:31.416Z,0
2023-02-08T22:14:33.494Z,0
2023-02-08T22:16:35.440Z,0
2023-02-08T22:18:36.950Z,0
2023-02-08T22:20:38.771Z,0
2023-02-08T22:22:40.144Z,0
2023-02-08T22:24:42.213Z,0
2023-02-08T22:26:43.331Z,0
2023-02-08T22:28:45.352Z,0
2023-02-08T22:30:47.293Z,1.404
2023-02-08T22:32:48.340Z,0
2023-02-08T22:34:49.572Z,0.982
2023-02-08T22:36:51.615Z,0.28
2023-02-08T22:38:52.890Z,0
2023-02-08T22:40:54.791Z,0
2023-02-08T22:42:56.503Z,0
2023-02-08T22:44:57.713Z,0
2023-02-08T22:46:59.231Z,0
2023-02-08T22:49:00.616Z,0
2023-02-08T22:51:02.123Z,0
2023-02-08T22:53:04.028Z,1.263
2023-02-08T22:55:05.869Z,0.421
2023-02-08T22:57:07.533Z,0
2023-02-08T22:59:10.424Z,0
2023-02-08T23:01:10.630Z,0
2023-02-08T23:03:12.546Z,0
2023-02-08T23:05:13.987Z,0
2023-02-08T23:07:15.764Z,0
2023-02-08T23:09:17.446Z,0
2023-02-08T23:11:18.865Z,0
2023-02-08T23:13:20.035Z,0
2023-02-08T23:15:21.471Z,0
2023-02-08T23:17:23.602Z,0
2023-02-08T23:19:25.639Z,0
2023-02-08T23:21:27.747Z,0
2023-02-08T23:23:29.937Z,0
2023-02-08T23:25:31.300Z,0
2023-02-08T23:27:33.119Z,0
2023-02-08T23:29:34.628Z,0
2023-02-08T23:31:36.479Z,0
2023-02-08T23:33:38.491Z,0
2023-02-08T23:35:39.876Z,0
2023-02-08T23:37:41.510Z,0
2023-02-08T23:39:43.373Z,0
2023-02-08T23:41:44.671Z,0
2023-02-08T23:43:46.385Z,0
2023-02-08T23:45:48.187Z,0
2023-02-08T23:47:50.233Z,0
2023-02-08T23:49:51.854Z,0
2023-02-08T23:51:53.386Z,0
2023-02-08T23:53:54.654Z,0
2023-02-08T23:55:56.351Z,0
2023-02-08T23:57:58.166Z,0
2023-02-08T23:58:42.217Z,0
